Time;durP1;ratioP1;P1;durP2;ratioP2;P2;SDS_P1;SDS_P2;PMS_P1;PMS_P2;Temp;Humidity;BMP_temperature;BMP_pressure;BME280_temperature;BME280_humidity;BME280_pressure;Samples;Min_cycle;Max_cycle;Signal;HPM_P1;HPM_P2
2022/07/10 00:00:30;;;;;;;6.10;1.10;;;;;;;-141.50;100.00;63355.56;5032089;28;20045;-77
2022/07/10 00:02:57;;;;;;;7.63;1.10;;;;;;;-141.50;100.00;63355.56;5048384;28;20095;-76
2022/07/10 00:05:25;;;;;;;10.88;1.30;;;;;;;-141.50;100.00;63355.56;5048302;28;20527;-77
2022/07/10 00:07:52;;;;;;;8.73;1.23;;;;;;;-141.50;100.00;63355.56;5031922;28;20084;-79
2022/07/10 00:10:19;;;;;;;8.27;1.33;;;;;;;-141.50;100.00;63355.56;5051006;28;20049;-78
2022/07/10 00:12:46;;;;;;;7.53;1.20;;;;;;;-141.50;100.00;63355.56;5049559;28;20077;-77
2022/07/10 00:15:13;;;;;;;6.20;1.13;;;;;;;-141.50;100.00;63355.56;5051340;28;20080;-78
2022/07/10 00:17:40;;;;;;;7.20;1.30;;;;;;;-141.50;100.00;63355.56;5051731;28;20084;-77
2022/07/10 00:20:08;;;;;;;11.20;1.33;;;;;;;-141.50;100.00;63355.56;5050045;28;20056;-78
2022/07/10 00:22:34;;;;;;;9.18;1.27;;;;;;;-141.50;100.00;63355.56;5048698;28;20080;-77
2022/07/10 00:25:02;;;;;;;12.55;1.50;;;;;;;-141.50;100.00;63355.56;5049262;28;20474;-78
2022/07/10 00:27:29;;;;;;;10.60;1.30;;;;;;;-141.50;100.00;63355.56;5032244;28;20118;-78
2022/07/10 00:29:56;;;;;;;6.30;1.20;;;;;;;-141.50;100.00;63355.56;5031226;28;20073;-77
2022/07/10 00:32:23;;;;;;;11.35;1.65;;;;;;;-141.50;100.00;63355.56;5048796;28;20053;-77
2022/07/10 00:34:49;;;;;;;8.70;1.10;;;;;;;-141.50;100.00;63355.56;5047793;28;20324;-76
2022/07/10 00:37:16;;;;;;;8.43;1.10;;;;;;;-141.50;100.00;63355.56;5030968;28;20056;-77
2022/07/10 00:39:42;;;;;;;7.22;1.08;;;;;;;-141.50;100.00;63355.56;5049159;28;20073;-76
2022/07/10 00:42:14;;;;;;;6.50;1.58;;;;;;;-141.50;100.00;63355.56;5048555;28;20083;-77
2022/07/10 00:44:43;;;;;;;3.30;1.00;;;;;;;-141.50;100.00;63355.56;5051752;28;20494;-77
2022/07/10 00:47:10;;;;;;;8.35;1.40;;;;;;;-141.50;100.00;63355.56;5053151;28;20045;-78
2022/07/10 00:49:38;;;;;;;6.63;1.25;;;;;;;-141.50;100.00;63355.56;5050446;28;20048;-78
2022/07/10 00:52:11;;;;;;;8.43;1.35;;;;;;;-141.50;100.00;63355.56;5049431;28;20118;-77
2022/07/10 00:54:41;;;;;;;5.68;1.05;;;;;;;-141.50;100.00;63355.56;5049577;28;20076;-78
2022/07/10 00:57:08;;;;;;;7.32;1.20;;;;;;;-141.50;100.00;63355.56;5050069;28;20128;-77
2022/07/10 00:59:35;;;;;;;7.85;1.17;;;;;;;-141.50;100.00;63355.56;5050564;28;20056;-78
2022/07/10 01:02:04;;;;;;;5.45;1.20;;;;;;;-141.50;100.00;63355.56;5049257;28;20080;-77
2022/07/10 01:04:31;;;;;;;7.25;1.08;;;;;;;-141.50;100.00;63355.56;5049426;28;20487;-77
2022/07/10 01:06:58;;;;;;;7.40;1.13;;;;;;;-141.50;100.00;63355.56;5053464;28;20079;-78
2022/07/10 01:09:26;;;;;;;5.97;0.90;;;;;;;-141.50;100.00;63355.56;5053910;28;20130;-78
2022/07/10 01:11:52;;;;;;;7.95;1.02;;;;;;;-141.50;100.00;63355.56;5055468;28;20068;-78
2022/07/10 01:14:20;;;;;;;10.38;1.45;;;;;;;-141.50;100.00;63355.56;5054840;28;20462;-78
2022/07/10 01:16:46;;;;;;;9.73;1.20;;;;;;;-141.50;100.00;63355.56;5054472;28;20171;-78
2022/07/10 01:19:13;;;;;;;6.13;1.00;;;;;;;-141.50;100.00;63355.56;5055978;28;20391;-77
2022/07/10 01:21:39;;;;;;;6.30;0.95;;;;;;;-141.50;100.00;63355.56;5054990;28;20076;-78
2022/07/10 01:24:08;;;;;;;6.95;1.00;;;;;;;-141.50;100.00;63355.56;5056068;28;20053;-78
2022/07/10 01:26:35;;;;;;;8.48;1.20;;;;;;;-141.50;100.00;63355.56;5057339;28;20075;-78
2022/07/10 01:29:04;;;;;;;7.80;1.00;;;;;;;-141.50;100.00;63355.56;5055865;28;20107;-78
2022/07/10 01:31:31;;;;;;;8.18;1.25;;;;;;;-141.50;100.00;63355.56;5053860;28;20064;-78
2022/07/10 01:34:00;;;;;;;9.93;1.17;;;;;;;-141.50;100.00;63355.56;5057037;28;20049;-77
2022/07/10 01:36:30;;;;;;;13.70;1.27;;;;;;;-141.50;100.00;63355.56;5037299;28;20092;-78
2022/07/10 01:38:58;;;;;;;8.38;1.63;;;;;;;-141.50;100.00;63355.56;5054439;28;20099;-79
2022/07/10 01:41:25;;;;;;;9.23;1.13;;;;;;;-141.50;100.00;63355.56;5052201;28;20144;-77
2022/07/10 01:43:52;;;;;;;11.93;1.60;;;;;;;-141.50;100.00;63355.56;5052177;28;20657;-78
2022/07/10 01:46:19;;;;;;;10.90;1.38;;;;;;;-141.50;100.00;63355.56;5053551;28;20135;-77
2022/07/10 01:48:46;;;;;;;6.90;1.35;;;;;;;-141.50;100.00;63355.56;5051926;28;20049;-77
2022/07/10 01:51:13;;;;;;;11.25;1.40;;;;;;;-141.50;100.00;63355.56;5053440;28;20056;-77
2022/07/10 01:53:40;;;;;;;11.18;1.55;;;;;;;-141.50;100.00;63355.56;5052874;28;20085;-78
2022/07/10 01:56:09;;;;;;;9.43;1.63;;;;;;;-141.50;100.00;63355.56;5055251;28;20073;-78
2022/07/10 01:58:37;;;;;;;7.65;1.17;;;;;;;-141.50;100.00;63355.56;5054571;28;20053;-78
2022/07/10 02:01:05;;;;;;;6.07;1.10;;;;;;;-141.50;100.00;63355.56;5054207;28;20132;-76
2022/07/10 02:06:17;;;;;;;8.83;1.30;;;;;;;-141.50;100.00;63355.56;5053791;28;20045;-78
2022/07/10 02:08:43;;;;;;;4.22;1.13;;;;;;;-141.50;100.00;63355.56;5052496;28;20139;-77
2022/07/10 02:11:12;;;;;;;10.80;1.30;;;;;;;-141.50;100.00;63355.56;5034643;28;20091;-78
2022/07/10 02:13:39;;;;;;;11.60;1.40;;;;;;;-141.50;100.00;63355.56;5051713;28;20202;-78
2022/07/10 02:16:06;;;;;;;7.50;1.20;;;;;;;-141.50;100.00;63355.56;5054271;28;20052;-78
2022/07/10 02:18:32;;;;;;;11.07;1.30;;;;;;;-141.50;100.00;63355.56;5052741;28;20079;-78
2022/07/10 02:20:59;;;;;;;10.68;1.50;;;;;;;-141.50;100.00;63355.56;5050953;28;20076;-77
2022/07/10 02:23:26;;;;;;;8.60;1.48;;;;;;;-141.50;100.00;63355.56;5051057;28;20049;-77
2022/07/10 02:25:52;;;;;;;13.93;1.55;;;;;;;-141.50;100.00;63355.56;5053374;28;20088;-78
2022/07/10 02:28:19;;;;;;;6.65;1.48;;;;;;;-141.50;100.00;63355.56;5076241;28;20075;-76
2022/07/10 02:30:45;;;;;;;8.10;1.70;;;;;;;-141.50;100.00;63355.56;5075898;28;20184;-79
2022/07/10 02:33:12;;;;;;;11.07;1.73;;;;;;;-141.50;100.00;63355.56;5059681;28;20057;-80
2022/07/10 02:35:38;;;;;;;11.10;1.33;;;;;;;-141.50;100.00;63355.56;5052355;28;20532;-77
2022/07/10 02:38:05;;;;;;;10.15;1.30;;;;;;;-141.50;100.00;63355.56;5053291;28;20053;-79
2022/07/10 02:40:31;;;;;;;9.35;1.60;;;;;;;-141.50;100.00;63355.56;5034753;28;20052;-78
2022/07/10 02:42:58;;;;;;;5.60;1.30;;;;;;;-141.50;100.00;63355.56;5050851;28;20057;-77
2022/07/10 02:45:24;;;;;;;12.45;1.42;;;;;;;-141.50;100.00;63355.56;5050970;28;20073;-77
2022/07/10 02:47:51;;;;;;;10.85;1.23;;;;;;;-141.50;100.00;63355.56;5053118;28;20073;-79
2022/07/10 02:50:17;;;;;;;8.98;1.20;;;;;;;-141.50;100.00;63355.56;5052816;28;20080;-78
2022/07/10 02:52:44;;;;;;;13.85;1.50;;;;;;;-141.50;100.00;63355.56;5050394;28;20106;-78
2022/07/10 02:55:10;;;;;;;9.45;1.35;;;;;;;-141.50;100.00;63355.56;5050479;28;20099;-77
2022/07/10 02:57:37;;;;;;;11.20;1.60;;;;;;;-141.50;100.00;63355.56;5050626;28;20130;-78
2022/07/10 03:00:04;;;;;;;6.85;1.27;;;;;;;-141.50;100.00;63355.56;5049822;28;20049;-77
2022/07/10 03:02:31;;;;;;;9.60;1.10;;;;;;;-141.50;100.00;63355.56;5031734;28;20056;-78
2022/07/10 03:04:57;;;;;;;8.55;1.30;;;;;;;-141.50;100.00;63355.56;5049461;28;20436;-77
2022/07/10 03:07:24;;;;;;;8.13;1.20;;;;;;;-141.50;100.00;63355.56;5050169;28;20053;-77
2022/07/10 03:09:50;;;;;;;13.95;1.52;;;;;;;-141.50;100.00;63355.56;5050276;28;20099;-78
2022/07/10 03:12:17;;;;;;;9.85;1.50;;;;;;;-141.50;100.00;63355.56;5050920;28;20079;-77
2022/07/10 03:14:43;;;;;;;6.90;1.27;;;;;;;-141.50;100.00;63355.56;5052434;28;20064;-78
2022/07/10 03:17:10;;;;;;;12.77;1.48;;;;;;;-141.50;100.00;63355.56;5053835;28;20525;-78
2022/07/10 03:19:36;;;;;;;9.10;1.77;;;;;;;-141.50;100.00;63355.56;5036202;28;20045;-77
2022/07/10 03:22:03;;;;;;;9.57;1.10;;;;;;;-141.50;100.00;63355.56;5050850;28;20136;-78
2022/07/10 03:24:30;;;;;;;18.50;1.55;;;;;;;-141.50;100.00;63355.56;5034437;28;20128;-77
2022/07/10 03:26:56;;;;;;;8.40;1.75;;;;;;;-141.50;100.00;63355.56;5049808;28;20067;-77
2022/07/10 03:29:23;;;;;;;11.25;1.83;;;;;;;-141.50;100.00;63355.56;5050007;28;20090;-77
2022/07/10 03:31:49;;;;;;;13.52;2.25;;;;;;;-141.50;100.00;63355.56;5049995;28;20135;-78
2022/07/10 03:34:16;;;;;;;14.15;2.10;;;;;;;-141.50;100.00;63355.56;5050181;28;20094;-77
2022/07/10 03:36:42;;;;;;;11.85;2.05;;;;;;;-141.50;100.00;63355.56;5048117;28;20063;-78
2022/07/10 03:39:09;;;;;;;9.27;2.00;;;;;;;-141.50;100.00;63355.56;5048431;28;20107;-77
2022/07/10 03:41:36;;;;;;;12.80;1.35;;;;;;;-141.50;100.00;63355.56;5050195;28;20083;-77
2022/07/10 03:44:03;;;;;;;9.75;1.55;;;;;;;-141.50;100.00;63355.56;5054010;28;20295;-76
2022/07/10 03:46:29;;;;;;;9.52;1.35;;;;;;;-141.50;100.00;63355.56;5051786;28;20136;-77
2022/07/10 03:48:56;;;;;;;9.20;1.70;;;;;;;-141.50;100.00;63355.56;5035769;28;20288;-78
2022/07/10 03:51:22;;;;;;;8.82;1.55;;;;;;;-141.50;100.00;63355.56;5030759;28;20524;-77
2022/07/10 03:53:49;;;;;;;8.48;1.20;;;;;;;-141.50;100.00;63355.56;5051170;28;20087;-78
2022/07/10 03:57:53;;;;;;;9.48;1.65;;;;;;;-141.50;100.00;63355.56;5053155;28;20183;-78
2022/07/10 03:59:02;;;;;;;8.40;1.30;;;;;;;-141.50;100.00;63355.56;5048404;28;20084;-76
2022/07/10 04:01:28;;;;;;;16.67;2.15;;;;;;;-141.50;100.00;63355.56;5047114;28;20057;-78
2022/07/10 04:03:55;;;;;;;12.10;1.77;;;;;;;-141.50;100.00;63355.56;5052560;28;20394;-77
2022/07/10 04:06:21;;;;;;;10.88;1.10;;;;;;;-141.50;100.00;63355.56;5048109;28;20136;-78
2022/07/10 04:08:48;;;;;;;10.48;1.30;;;;;;;-141.50;100.00;63355.56;5053172;28;20052;-77
2022/07/10 04:11:15;;;;;;;9.23;1.52;;;;;;;-141.50;100.00;63355.56;5048646;28;20048;-76
2022/07/10 04:13:44;;;;;;;4.80;1.05;;;;;;;-141.50;100.00;63355.56;5049830;28;20080;-78
2022/07/10 04:16:12;;;;;;;9.75;1.40;;;;;;;-141.50;100.00;63355.56;5048069;28;20088;-77
2022/07/10 04:18:39;;;;;;;12.63;1.70;;;;;;;-141.50;100.00;63355.56;5049092;28;20071;-78
2022/07/10 04:21:07;;;;;;;13.10;1.95;;;;;;;-141.50;100.00;63355.56;5047620;28;20053;-78
2022/07/10 04:23:34;;;;;;;7.88;1.40;;;;;;;-141.50;100.00;63355.56;5047413;28;20580;-77
2022/07/10 04:26:01;;;;;;;4.15;0.95;;;;;;;-141.50;100.00;63355.56;5049736;28;20092;-78
2022/07/10 04:28:27;;;;;;;12.32;1.38;;;;;;;-141.50;100.00;63355.56;5052332;28;20053;-79
2022/07/10 04:30:54;;;;;;;8.18;1.35;;;;;;;-141.50;100.00;63355.56;5050439;28;20098;-78
2022/07/10 04:33:21;;;;;;;11.45;1.33;;;;;;;-141.50;100.00;63355.56;5051062;28;20087;-79
2022/07/10 04:35:47;;;;;;;8.35;1.25;;;;;;;-141.50;100.00;63355.56;5049832;28;20084;-78
2022/07/10 04:38:14;;;;;;;12.23;1.30;;;;;;;-141.50;100.00;63355.56;5051104;28;20468;-79
2022/07/10 04:40:41;;;;;;;11.45;1.35;;;;;;;-141.50;100.00;63355.56;5054088;28;20091;-78
2022/07/10 04:43:07;;;;;;;4.90;1.05;;;;;;;-141.50;100.00;63355.56;5053720;28;20085;-78
2022/07/10 04:45:34;;;;;;;5.60;1.20;;;;;;;-141.50;100.00;63355.56;5052900;28;20335;-77
2022/07/10 04:48:00;;;;;;;8.90;1.70;;;;;;;-141.50;100.00;63355.56;5026698;28;20125;-77
2022/07/10 04:50:27;;;;;;;11.52;1.38;;;;;;;-141.50;100.00;63355.56;5051484;28;20304;-76
2022/07/10 04:52:53;;;;;;;6.25;0.98;;;;;;;-141.50;100.00;63355.56;5033703;28;20045;-78
2022/07/10 04:55:21;;;;;;;13.55;1.10;;;;;;;-141.50;100.00;63355.56;5053193;28;20084;-76
2022/07/10 04:57:48;;;;;;;6.80;1.50;;;;;;;-141.50;100.00;63355.56;5055621;28;20049;-78
2022/07/10 05:00:15;;;;;;;5.90;1.10;;;;;;;-141.50;100.00;63355.56;5054288;28;20140;-78
2022/07/10 05:02:42;;;;;;;7.47;1.08;;;;;;;-141.50;100.00;63355.56;5054810;28;20053;-78
2022/07/10 05:05:08;;;;;;;4.80;1.10;;;;;;;-141.50;100.00;63355.56;5053371;28;20191;-76
2022/07/10 05:07:35;;;;;;;10.70;1.27;;;;;;;-141.50;100.00;63355.56;5034250;28;20041;-75
2022/07/10 05:10:02;;;;;;;6.60;1.00;;;;;;;-141.50;100.00;63355.56;5051425;28;20103;-78
2022/07/10 05:12:28;;;;;;;11.38;1.20;;;;;;;-141.50;100.00;63355.56;5052930;28;20060;-79
2022/07/10 05:14:55;;;;;;;10.07;1.38;;;;;;;-141.50;100.00;63355.56;5053921;28;20109;-77
2022/07/10 05:17:22;;;;;;;7.22;1.38;;;;;;;-141.50;100.00;63355.56;5054424;28;20520;-77
2022/07/10 05:19:48;;;;;;;6.68;1.20;;;;;;;-141.50;100.00;63355.56;5054115;28;20195;-78
2022/07/10 05:22:15;;;;;;;6.22;1.00;;;;;;;-141.50;100.00;63355.56;5054426;28;20467;-78
2022/07/10 05:24:41;;;;;;;10.10;1.50;;;;;;;-141.50;100.00;63355.56;5053808;28;20073;-77
2022/07/10 05:27:08;;;;;;;10.85;1.73;;;;;;;-141.50;100.00;63355.56;5038168;28;20080;-78
2022/07/10 05:29:34;;;;;;;7.60;1.67;;;;;;;-141.50;100.00;63355.56;5055420;28;20045;-78
2022/07/10 05:32:01;;;;;;;9.68;1.58;;;;;;;-141.50;100.00;63355.56;5054179;28;20136;-77
2022/07/10 05:34:28;;;;;;;7.28;1.25;;;;;;;-141.50;100.00;63355.56;5051702;28;20413;-77
2022/07/10 05:36:54;;;;;;;12.27;1.60;;;;;;;-141.50;100.00;63355.56;5050053;28;20053;-79
2022/07/10 05:39:21;;;;;;;8.45;1.25;;;;;;;-141.50;100.00;63355.56;5049447;28;20133;-78
2022/07/10 05:41:48;;;;;;;10.38;1.30;;;;;;;-141.50;100.00;63355.56;5052399;28;20053;-79
2022/07/10 05:44:14;;;;;;;7.07;1.10;;;;;;;-141.50;100.00;63355.56;5053110;28;20049;-78
2022/07/10 05:46:41;;;;;;;10.93;1.13;;;;;;;-141.50;100.00;63355.56;5046847;28;20080;-78
2022/07/10 05:49:08;;;;;;;7.85;1.23;;;;;;;-141.50;100.00;63355.56;5046157;28;20041;-78
2022/07/10 05:51:34;;;;;;;8.10;1.13;;;;;;;-141.50;100.00;63355.56;5048548;28;20088;-78
2022/07/10 05:54:10;;;;;;;7.10;1.20;;;;;;;-141.50;100.00;63355.56;5070565;28;20043;-79
2022/07/10 05:56:37;;;;;;;5.85;1.00;;;;;;;-141.50;100.00;63355.56;5060276;28;20047;-77
2022/07/10 05:59:03;;;;;;;6.88;1.10;;;;;;;-141.50;100.00;63355.56;5057469;28;20116;-78
2022/07/10 06:01:31;;;;;;;11.02;0.80;;;;;;;-141.50;100.00;63355.56;5036621;28;20072;-78
2022/07/10 06:03:57;;;;;;;11.00;1.52;;;;;;;-141.50;100.00;63355.56;5032906;28;20053;-78
2022/07/10 06:06:24;;;;;;;7.38;1.02;;;;;;;-141.50;100.00;63355.56;5031964;28;20053;-78
2022/07/10 06:08:51;;;;;;;6.82;1.13;;;;;;;-141.50;100.00;63355.56;5033219;28;20318;-77
2022/07/10 06:11:17;;;;;;;6.10;0.77;;;;;;;-141.50;100.00;63355.56;5033802;28;20049;-78
2022/07/10 06:13:44;;;;;;;3.85;0.85;;;;;;;-141.50;100.00;63355.56;5034022;28;20073;-78
2022/07/10 06:16:10;;;;;;;7.00;0.77;;;;;;;-141.50;100.00;63355.56;5034472;28;20056;-78
2022/07/10 06:18:37;;;;;;;5.35;0.90;;;;;;;-141.50;100.00;63355.56;5036534;28;20050;-78
2022/07/10 06:21:04;;;;;;;6.07;1.20;;;;;;;-141.50;100.00;63355.56;5034093;28;20077;-79
2022/07/10 06:23:31;;;;;;;6.50;0.90;;;;;;;-141.50;100.00;63355.56;5035044;28;20627;-77
2022/07/10 06:25:57;;;;;;;9.15;1.20;;;;;;;-141.50;100.00;63355.56;5044008;28;20060;-77
2022/07/10 06:28:25;;;;;;;6.18;1.23;;;;;;;-141.50;100.00;63355.56;5030466;28;20029;-78
2022/07/10 06:30:54;;;;;;;6.72;1.30;;;;;;;-141.50;100.00;63355.56;5020340;28;20096;-78
2022/07/10 06:33:26;;;;;;;7.38;1.50;;;;;;;-141.50;100.00;63355.56;5033208;28;20104;-77
2022/07/10 06:35:52;;;;;;;4.93;1.20;;;;;;;-141.50;100.00;63355.56;5033745;28;20111;-79
2022/07/10 06:38:19;;;;;;;4.50;1.00;;;;;;;-141.50;100.00;63355.56;5018921;28;20088;-77
2022/07/10 06:40:47;;;;;;;5.25;1.50;;;;;;;-141.50;100.00;63355.56;5035899;28;20056;-77
2022/07/10 06:43:14;;;;;;;6.15;1.42;;;;;;;-141.50;100.00;63355.56;5033184;28;20119;-77
2022/07/10 06:45:41;;;;;;;6.15;1.20;;;;;;;-141.50;100.00;63355.56;5039362;28;20330;-78
2022/07/10 06:48:08;;;;;;;6.00;1.17;;;;;;;-141.50;100.00;63355.56;5051916;28;20083;-79
2022/07/10 06:50:35;;;;;;;6.35;0.98;;;;;;;-141.50;100.00;63355.56;5053415;28;20087;-78
2022/07/10 06:53:03;;;;;;;3.90;1.20;;;;;;;-141.50;100.00;63355.56;5051614;28;20112;-77
2022/07/10 06:55:30;;;;;;;4.32;0.90;;;;;;;-141.50;100.00;63355.56;5052186;28;20108;-77
2022/07/10 06:57:58;;;;;;;5.38;0.77;;;;;;;-141.50;100.00;63355.56;5054582;28;20045;-76
2022/07/10 07:00:26;;;;;;;5.60;0.95;;;;;;;-141.50;100.00;63355.56;5052252;28;20056;-77
2022/07/10 07:02:52;;;;;;;3.63;0.85;;;;;;;-141.50;100.00;63355.56;5053868;28;20442;-77
2022/07/10 07:05:19;;;;;;;4.38;0.90;;;;;;;-141.50;100.00;63355.56;5034273;28;20121;-79
2022/07/10 07:07:46;;;;;;;8.57;1.10;;;;;;;-141.50;100.00;63355.56;5054864;28;20064;-77
2022/07/10 07:10:12;;;;;;;4.65;0.90;;;;;;;-141.50;100.00;63355.56;5052496;28;20058;-78
2022/07/10 07:12:39;;;;;;;5.55;0.85;;;;;;;-141.50;100.00;63355.56;5052910;28;20175;-78
2022/07/10 07:15:07;;;;;;;2.90;0.88;;;;;;;-141.50;100.00;63355.56;5053104;28;20108;-77
2022/07/10 07:17:56;;;;;;;6.75;1.10;;;;;;;-141.50;100.00;63355.56;5052295;28;20080;-79
2022/07/10 07:23:10;;;;;;;8.63;2.25;;;;;;;-141.50;100.00;63355.56;5053341;28;20080;-77
2022/07/10 07:25:44;;;;;;;4.97;1.45;;;;;;;-141.50;100.00;63355.56;5036257;28;20123;-78
2022/07/10 07:28:10;;;;;;;7.10;1.30;;;;;;;-141.50;100.00;63355.56;5035932;28;20055;-78
2022/07/10 07:30:37;;;;;;;10.27;1.48;;;;;;;-141.50;100.00;63355.56;5052454;28;20356;-78
2022/07/10 07:33:04;;;;;;;6.15;1.33;;;;;;;-141.50;100.00;63355.56;5052867;28;20080;-78
2022/07/10 07:35:31;;;;;;;9.82;1.20;;;;;;;-141.50;100.00;63355.56;5052723;28;20053;-79
2022/07/10 07:37:57;;;;;;;6.30;1.42;;;;;;;-141.50;100.00;63355.56;5050765;28;20128;-78
2022/07/10 07:40:24;;;;;;;6.63;1.33;;;;;;;-141.50;100.00;63355.56;5051960;28;20058;-78
2022/07/10 07:42:53;;;;;;;4.38;1.13;;;;;;;-141.50;100.00;63355.56;5052660;28;20084;-77
2022/07/10 07:45:20;;;;;;;6.38;1.27;;;;;;;-141.50;100.00;63355.56;5035113;28;20048;-77
2022/07/10 07:47:51;;;;;;;8.63;1.48;;;;;;;-141.50;100.00;63355.56;5044215;28;20490;-78
2022/07/10 07:50:20;;;;;;;8.60;1.15;;;;;;;-141.50;100.00;63355.56;5052439;28;20053;-80
2022/07/10 07:52:47;;;;;;;4.00;0.75;;;;;;;-141.50;100.00;63355.56;5038712;28;20520;-79
2022/07/10 07:55:16;;;;;;;11.35;1.98;;;;;;;-141.50;100.00;63355.56;5055541;28;20521;-79
2022/07/10 07:57:43;;;;;;;8.45;1.00;;;;;;;-141.50;100.00;63355.56;5055084;28;20144;-79
2022/07/10 08:00:10;;;;;;;6.72;1.30;;;;;;;-141.50;100.00;63355.56;5055771;28;20581;-79
2022/07/10 08:02:38;;;;;;;9.55;2.05;;;;;;;-141.50;100.00;63355.56;5057133;28;20612;-80
2022/07/10 08:05:05;;;;;;;8.35;1.45;;;;;;;-141.50;100.00;63355.56;5057060;28;20452;-80
2022/07/10 08:07:39;;;;;;;8.65;1.30;;;;;;;-141.50;100.00;63355.56;5064294;28;20143;-79
2022/07/10 08:10:08;;;;;;;5.55;1.65;;;;;;;-141.50;100.00;63355.56;5064590;28;20049;-79
2022/07/10 08:12:35;;;;;;;9.73;1.50;;;;;;;-141.50;100.00;63355.56;5054184;28;20280;-78
2022/07/10 08:15:02;;;;;;;5.90;1.40;;;;;;;-141.50;100.00;63355.56;5054839;28;20116;-78
2022/07/10 08:17:29;;;;;;;9.40;1.50;;;;;;;-141.50;100.00;63355.56;5054476;28;20453;-80
2022/07/10 08:19:55;;;;;;;8.32;1.55;;;;;;;-141.50;100.00;63355.56;5055184;28;20080;-80
2022/07/10 08:22:22;;;;;;;7.75;1.58;;;;;;;-141.50;100.00;63355.56;5059648;28;20057;-80
2022/07/10 08:24:48;;;;;;;9.85;1.77;;;;;;;-141.50;100.00;63355.56;5040535;28;20049;-80
2022/07/10 08:27:15;;;;;;;7.60;1.77;;;;;;;-141.50;100.00;63355.56;5041964;28;20556;-79
2022/07/10 08:29:42;;;;;;;7.10;1.80;;;;;;;-141.50;100.00;63355.56;5059022;28;20075;-80
2022/07/10 08:32:09;;;;;;;11.25;2.05;;;;;;;-141.50;100.00;63355.56;5057917;28;20048;-79
2022/07/10 08:34:36;;;;;;;9.85;2.40;;;;;;;-141.50;100.00;63355.56;5057798;28;20079;-81
2022/07/10 08:37:03;;;;;;;10.07;2.33;;;;;;;-141.50;100.00;63355.56;5052286;28;20049;-79
2022/07/10 08:39:31;;;;;;;8.70;1.92;;;;;;;-141.50;100.00;63355.56;5033720;28;20263;-78
2022/07/10 08:41:58;;;;;;;7.05;1.85;;;;;;;-141.50;100.00;63355.56;5056773;28;20107;-80
2022/07/10 08:44:26;;;;;;;11.73;2.90;;;;;;;-141.50;100.00;63355.56;5057993;28;20077;-78
2022/07/10 08:46:53;;;;;;;12.55;2.28;;;;;;;-141.50;100.00;63355.56;5030382;28;20053;-81
2022/07/10 08:49:26;;;;;;;6.57;2.00;;;;;;;-141.50;100.00;63355.56;5044054;28;20049;-80
2022/07/10 08:52:11;;;;;;;10.23;1.98;;;;;;;-141.50;100.00;63355.56;5037387;28;20046;-80
2022/07/10 08:54:38;;;;;;;11.47;2.07;;;;;;;-141.50;100.00;63355.56;5040267;28;20079;-80
2022/07/10 08:57:07;;;;;;;10.05;1.90;;;;;;;-141.50;100.00;63355.56;5042274;28;20053;-80
2022/07/10 08:59:34;;;;;;;9.55;1.98;;;;;;;-141.50;100.00;63355.56;5043128;28;20053;-79
2022/07/10 09:02:01;;;;;;;9.35;2.20;;;;;;;-141.50;100.00;63355.56;5040719;28;20057;-79
2022/07/10 09:04:28;;;;;;;7.82;1.80;;;;;;;-141.50;100.00;63355.56;5045370;28;20113;-80
2022/07/10 09:06:55;;;;;;;8.57;1.92;;;;;;;-141.50;100.00;63355.56;5041311;28;20069;-80
2022/07/10 09:09:23;;;;;;;7.05;1.70;;;;;;;-141.50;100.00;63355.56;5040428;28;20042;-79
2022/07/10 09:11:55;;;;;;;4.10;1.98;;;;;;;-141.50;100.00;63355.56;5040076;28;20049;-79
2022/07/10 09:14:23;;;;;;;8.18;1.60;;;;;;;-141.50;100.00;63355.56;5037683;28;20050;-79
2022/07/10 09:17:01;;;;;;;8.50;1.67;;;;;;;-141.50;100.00;63355.56;5038111;28;20069;-79
2022/07/10 09:19:29;;;;;;;8.60;1.50;;;;;;;-141.50;100.00;63355.56;5039851;28;20045;-78
2022/07/10 09:22:06;;;;;;;6.53;1.38;;;;;;;-141.50;100.00;63355.56;5044193;28;20034;-81
2022/07/10 09:24:45;;;;;;;5.57;1.00;;;;;;;-141.50;100.00;63355.56;5053455;28;20080;-78
2022/07/10 09:27:14;;;;;;;3.90;0.90;;;;;;;-141.50;100.00;63355.56;5054581;28;20041;-79
2022/07/10 09:29:59;;;;;;;5.38;0.88;;;;;;;-141.50;100.00;63355.56;5042801;28;20049;-80
2022/07/10 09:32:27;;;;;;;2.83;0.60;;;;;;;-141.50;100.00;63355.56;5043355;28;20060;-81
2022/07/10 09:36:04;;;;;;;5.30;0.77;;;;;;;-141.50;100.00;63355.56;5045653;28;20072;-80
2022/07/10 09:37:41;;;;;;;4.80;0.90;;;;;;;-141.50;100.00;63355.56;5045192;28;20556;-80
2022/07/10 09:40:09;;;;;;;11.40;1.00;;;;;;;-141.50;100.00;63355.56;5044636;28;20072;-78
2022/07/10 09:42:42;;;;;;;6.53;1.08;;;;;;;-141.50;100.00;63355.56;5046843;28;20119;-80
2022/07/10 09:45:12;;;;;;;6.45;1.58;;;;;;;-141.50;100.00;63355.56;5053909;28;20053;-79
2022/07/10 09:47:45;;;;;;;6.65;0.95;;;;;;;-141.50;100.00;63355.56;5063059;28;20052;-79
2022/07/10 09:50:27;;;;;;;7.05;1.30;;;;;;;-141.50;100.00;63355.56;5040540;28;20452;-77
2022/07/10 09:52:59;;;;;;;5.88;1.75;;;;;;;-141.50;100.00;63355.56;5039938;28;20061;-78
2022/07/10 09:55:29;;;;;;;7.38;1.90;;;;;;;-141.50;100.00;63355.56;5041820;28;20061;-78
2022/07/10 09:58:00;;;;;;;6.32;1.23;;;;;;;-141.50;100.00;63355.56;5042164;28;20108;-78
2022/07/10 10:00:32;;;;;;;8.65;1.25;;;;;;;-141.50;100.00;63355.56;5041951;28;20053;-78
2022/07/10 10:03:01;;;;;;;8.40;1.30;;;;;;;-141.50;100.00;63355.56;5042162;28;20068;-78
2022/07/10 10:05:37;;;;;;;8.10;1.17;;;;;;;-141.50;100.00;63355.56;5042454;28;20060;-78
2022/07/10 10:08:24;;;;;;;;;;;;;;;-141.50;100.00;63355.56;5044098;28;20049;-78
2022/07/10 10:10:51;;;;;;;4.03;0.93;;;;;;;-141.50;100.00;63355.56;5038828;28;19941;-78
2022/07/10 10:13:23;;;;;;;5.40;1.20;;;;;;;-141.50;100.00;63355.56;5040021;28;20111;-77
2022/07/10 10:15:51;;;;;;;5.60;1.00;;;;;;;-141.50;100.00;63355.56;5043225;28;20087;-79
2022/07/10 10:18:20;;;;;;;12.02;1.45;;;;;;;-141.50;100.00;63355.56;5024993;28;20049;-79
2022/07/10 10:20:50;;;;;;;8.88;1.70;;;;;;;-141.50;100.00;63355.56;5024563;28;20053;-80
2022/07/10 10:23:22;;;;;;;5.95;1.40;;;;;;;-141.50;100.00;63355.56;5043305;28;20088;-81
2022/07/10 10:25:51;;;;;;;5.88;1.02;;;;;;;-141.50;100.00;63355.56;5039846;28;20053;-77
2022/07/10 10:28:23;;;;;;;5.63;1.23;;;;;;;-141.50;100.00;63355.56;5040394;28;20049;-76
2022/07/10 10:30:53;;;;;;;5.13;1.20;;;;;;;-141.50;100.00;63355.56;5020111;28;20446;-78
2022/07/10 10:33:32;;;;;;;8.07;1.35;;;;;;;-141.50;100.00;63355.56;5037476;28;20077;-78
2022/07/10 10:36:06;;;;;;;8.07;1.15;;;;;;;-141.50;100.00;63355.56;5036714;28;20050;-78
2022/07/10 10:38:48;;;;;;;8.30;1.00;;;;;;;-141.50;100.00;63355.56;5035712;28;20049;-78
2022/07/10 10:41:33;;;;;;;7.85;1.38;;;;;;;-141.50;100.00;63355.56;5038772;28;20161;-77
2022/07/10 10:44:18;;;;;;;5.97;1.42;;;;;;;-141.50;100.00;63355.56;5037718;28;20053;-79
2022/07/10 10:46:50;;;;;;;6.13;1.30;;;;;;;-141.50;100.00;63355.56;5056834;28;20049;-78
2022/07/10 10:49:20;;;;;;;7.20;1.58;;;;;;;-141.50;100.00;63355.56;5040151;28;20530;-79
2022/07/10 10:51:59;;;;;;;7.63;1.00;;;;;;;-141.50;100.00;63355.56;5033758;28;20050;-78
2022/07/10 10:54:27;;;;;;;6.45;1.05;;;;;;;-141.50;100.00;63355.56;5036903;28;20058;-79
2022/07/10 10:57:13;;;;;;;6.90;1.15;;;;;;;-141.50;100.00;63355.56;5038944;28;20505;-80
2022/07/10 10:59:50;;;;;;;6.05;1.50;;;;;;;-141.50;100.00;63355.56;5040986;28;20076;-80
2022/07/10 11:02:26;;;;;;;6.65;1.15;;;;;;;-141.50;100.00;63355.56;5041699;28;20337;-79
2022/07/10 11:05:14;;;;;;;;;;;;;;;-141.50;100.00;63355.56;5039349;28;20498;-79
2022/07/10 11:08:34;;;;;;;6.20;1.00;;;;;;;-141.50;100.00;63355.56;5024468;28;19928;-79
2022/07/10 11:11:01;;;;;;;10.05;1.10;;;;;;;-141.50;100.00;63355.56;4981280;28;20062;-79
2022/07/10 11:13:30;;;;;;;6.75;0.88;;;;;;;-141.50;100.00;63355.56;5037633;28;20065;-80
2022/07/10 11:15:58;;;;;;;3.70;1.10;;;;;;;-141.50;100.00;63355.56;5041872;28;20045;-79
2022/07/10 11:18:28;;;;;;;8.43;1.45;;;;;;;-141.50;100.00;63355.56;5041704;28;20049;-79